LVLRG KPWM-KBOS
Flight info
| Callsign | LVLRG |
|---|---|
| Flight time | 0h 32m |
| Altitude | 10000 |
| Route | ENE V139 BURDY |
| Aircraft | B350/L-SDF/C |
Departure
| Time | 2026-04-16 22:15 |
|---|---|
| Airport | Portland International Jetport (KPWM) |
Arrival
| Time | 2026-04-16 22:47 |
|---|---|
| Airport | Boston Logan International Airport (KBOS) |
| Time | Latitude | Longitude | Altitude | Speed | Heading |
|---|---|---|---|---|---|
| 2026-04-16 21:53 | 43.64968 | -70.30827 | 57 ft | 0 kts | 179° |
| 2026-04-16 22:07 | 43.64957 | -70.30817 | 54 ft | 6 kts | 100° |
| 2026-04-16 22:07 | 43.64959 | -70.30760 | 54 ft | 0 kts | 85° |
| 2026-04-16 22:08 | 43.64959 | -70.30757 | 54 ft | 2 kts | 85° |
| 2026-04-16 22:08 | 43.64935 | -70.30712 | 52 ft | 9 kts | 169° |
| 2026-04-16 22:09 | 43.64865 | -70.30706 | 54 ft | 11 kts | 177° |
| 2026-04-16 22:09 | 43.64793 | -70.30700 | 55 ft | 10 kts | 180° |
| 2026-04-16 22:09 | 43.64729 | -70.30701 | 57 ft | 9 kts | 177° |
| 2026-04-16 22:09 | 43.64661 | -70.30698 | 54 ft | 11 kts | 178° |
| 2026-04-16 22:10 | 43.64579 | -70.30715 | 54 ft | 13 kts | 229° |
| 2026-04-16 22:10 | 43.64578 | -70.30845 | 53 ft | 14 kts | 275° |
| 2026-04-16 22:10 | 43.64586 | -70.30980 | 57 ft | 14 kts | 275° |
| 2026-04-16 22:10 | 43.64597 | -70.31119 | 58 ft | 15 kts | 277° |
| 2026-04-16 22:11 | 43.64603 | -70.31262 | 59 ft | 15 kts | 272° |
| 2026-04-16 22:11 | 43.64612 | -70.31402 | 62 ft | 14 kts | 274° |
| 2026-04-16 22:11 | 43.64622 | -70.31536 | 61 ft | 14 kts | 279° |
| 2026-04-16 22:11 | 43.64634 | -70.31666 | 66 ft | 13 kts | 275° |
| 2026-04-16 22:12 | 43.64644 | -70.31784 | 71 ft | 12 kts | 275° |
| 2026-04-16 22:12 | 43.64650 | -70.31900 | 73 ft | 12 kts | 274° |
| 2026-04-16 22:12 | 43.64657 | -70.32024 | 74 ft | 13 kts | 274° |
| 2026-04-16 22:12 | 43.64664 | -70.32147 | 77 ft | 12 kts | 275° |
| 2026-04-16 22:13 | 43.64673 | -70.32261 | 80 ft | 12 kts | 278° |
| 2026-04-16 22:13 | 43.64684 | -70.32381 | 80 ft | 14 kts | 276° |
| 2026-04-16 22:13 | 43.64674 | -70.32523 | 80 ft | 15 kts | 262° |
| 2026-04-16 22:13 | 43.64641 | -70.32583 | 82 ft | 6 kts | 196° |
| 2026-04-16 22:14 | 43.64596 | -70.32584 | 82 ft | 8 kts | 155° |
| 2026-04-16 22:14 | 43.64573 | -70.32387 | 73 ft | 53 kts | 94° |
| 2026-04-16 22:14 | 43.64518 | -70.31543 | 69 ft | 117 kts | 94° |
| 2026-04-16 22:14 | 43.64439 | -70.30371 | 494 ft | 129 kts | 94° |
| 2026-04-16 22:15 | 43.64368 | -70.28977 | 740 ft | 158 kts | 94° |
| 2026-04-16 22:15 | 43.64293 | -70.27411 | 1151 ft | 171 kts | 96° |
| 2026-04-16 22:15 | 43.64233 | -70.25708 | 1571 ft | 179 kts | 95° |
| 2026-04-16 22:15 | 43.64184 | -70.24041 | 2270 ft | 172 kts | 94° |
| 2026-04-16 22:16 | 43.64171 | -70.22291 | 2502 ft | 194 kts | 94° |
| 2026-04-16 22:16 | 43.64108 | -70.20418 | 3020 ft | 192 kts | 104° |
| 2026-04-16 22:16 | 43.63602 | -70.18709 | 3450 ft | 197 kts | 132° |
| 2026-04-16 22:16 | 43.62609 | -70.17451 | 3950 ft | 190 kts | 160° |
| 2026-04-16 22:17 | 43.61456 | -70.16750 | 4749 ft | 175 kts | 166° |
| 2026-04-16 22:17 | 43.60318 | -70.16048 | 5251 ft | 185 kts | 166° |
| 2026-04-16 22:17 | 43.59116 | -70.15293 | 5721 ft | 193 kts | 164° |
| 2026-04-16 22:17 | 43.57895 | -70.14501 | 6197 ft | 195 kts | 166° |
| 2026-04-16 22:18 | 43.56630 | -70.13746 | 6612 ft | 200 kts | 166° |
| 2026-04-16 22:18 | 43.55357 | -70.12986 | 7114 ft | 199 kts | 166° |
| 2026-04-16 22:18 | 43.54091 | -70.12186 | 7594 ft | 202 kts | 164° |
| 2026-04-16 22:18 | 43.52818 | -70.11300 | 8011 ft | 208 kts | 162° |
| 2026-04-16 22:19 | 43.51521 | -70.10419 | 8478 ft | 206 kts | 167° |
| 2026-04-16 22:19 | 43.50156 | -70.09957 | 8844 ft | 201 kts | 189° |
| 2026-04-16 22:19 | 43.48802 | -70.10160 | 9263 ft | 192 kts | 204° |
| 2026-04-16 22:19 | 43.47560 | -70.10625 | 9930 ft | 180 kts | 208° |
| 2026-04-16 22:20 | 43.46286 | -70.11175 | 9932 ft | 205 kts | 208° |
| 2026-04-16 22:20 | 43.44867 | -70.11780 | 9931 ft | 222 kts | 206° |
| 2026-04-16 22:20 | 43.43335 | -70.12397 | 9932 ft | 236 kts | 206° |
| 2026-04-16 22:20 | 43.41738 | -70.13065 | 9969 ft | 244 kts | 206° |
| 2026-04-16 22:21 | 43.40096 | -70.13775 | 9989 ft | 250 kts | 206° |
| 2026-04-16 22:21 | 43.38454 | -70.14522 | 10020 ft | 254 kts | 207° |
| 2026-04-16 22:21 | 43.36785 | -70.15342 | 10034 ft | 257 kts | 208° |
| 2026-04-16 22:21 | 43.35097 | -70.16220 | 9969 ft | 262 kts | 209° |
| 2026-04-16 22:22 | 43.33417 | -70.17206 | 9925 ft | 261 kts | 214° |
| 2026-04-16 22:22 | 43.31827 | -70.18402 | 9929 ft | 260 kts | 217° |
| 2026-04-16 22:22 | 43.30257 | -70.19634 | 9945 ft | 260 kts | 217° |
| 2026-04-16 22:22 | 43.28684 | -70.20890 | 9933 ft | 261 kts | 218° |
| 2026-04-16 22:23 | 43.27130 | -70.22155 | 9955 ft | 260 kts | 218° |
| 2026-04-16 22:23 | 43.25586 | -70.23445 | 9919 ft | 261 kts | 219° |
| 2026-04-16 22:23 | 43.24029 | -70.24755 | 9905 ft | 262 kts | 219° |
| 2026-04-16 22:23 | 43.22480 | -70.26053 | 9948 ft | 260 kts | 219° |
| 2026-04-16 22:24 | 43.20930 | -70.27341 | 9926 ft | 261 kts | 218° |
| 2026-04-16 22:24 | 43.19368 | -70.28627 | 9922 ft | 262 kts | 218° |
| 2026-04-16 22:24 | 43.17809 | -70.29896 | 9951 ft | 261 kts | 218° |
| 2026-04-16 22:24 | 43.16275 | -70.31176 | 9948 ft | 260 kts | 220° |
| 2026-04-16 22:25 | 43.14792 | -70.32627 | 9950 ft | 258 kts | 223° |
| 2026-04-16 22:25 | 43.13357 | -70.34090 | 9961 ft | 257 kts | 224° |
| 2026-04-16 22:25 | 43.11925 | -70.35583 | 9936 ft | 258 kts | 224° |
| 2026-04-16 22:25 | 43.10529 | -70.37061 | 9961 ft | 257 kts | 224° |
| 2026-04-16 22:26 | 43.09037 | -70.38447 | 9953 ft | 260 kts | 220° |
| 2026-04-16 22:26 | 43.07504 | -70.39821 | 9925 ft | 261 kts | 220° |
| 2026-04-16 22:26 | 43.06004 | -70.41155 | 9963 ft | 259 kts | 220° |
| 2026-04-16 22:26 | 43.04472 | -70.42506 | 9972 ft | 260 kts | 220° |
| 2026-04-16 22:27 | 43.02941 | -70.43843 | 9932 ft | 262 kts | 219° |
| 2026-04-16 22:27 | 43.01419 | -70.45158 | 9943 ft | 262 kts | 219° |
| 2026-04-16 22:27 | 42.99877 | -70.46475 | 9975 ft | 261 kts | 219° |
| 2026-04-16 22:27 | 42.98335 | -70.47773 | 9970 ft | 262 kts | 219° |
| 2026-04-16 22:28 | 42.96768 | -70.49074 | 9944 ft | 263 kts | 218° |
| 2026-04-16 22:28 | 42.95203 | -70.50353 | 9963 ft | 262 kts | 218° |
| 2026-04-16 22:28 | 42.93625 | -70.51622 | 9978 ft | 263 kts | 217° |
| 2026-04-16 22:28 | 42.92044 | -70.52874 | 9963 ft | 264 kts | 217° |
| 2026-04-16 22:29 | 42.90447 | -70.54117 | 9974 ft | 264 kts | 217° |
| 2026-04-16 22:29 | 42.88847 | -70.55342 | 9984 ft | 264 kts | 216° |
| 2026-04-16 22:29 | 42.87238 | -70.56553 | 9980 ft | 265 kts | 216° |
| 2026-04-16 22:29 | 42.85614 | -70.57752 | 9994 ft | 265 kts | 216° |
| 2026-04-16 22:30 | 42.83983 | -70.58930 | 10002 ft | 265 kts | 215° |
| 2026-04-16 22:30 | 42.82342 | -70.60086 | 9970 ft | 266 kts | 214° |
| 2026-04-16 22:30 | 42.80720 | -70.61321 | 9716 ft | 270 kts | 217° |
| 2026-04-16 22:30 | 42.79095 | -70.62653 | 9404 ft | 274 kts | 218° |
| 2026-04-16 22:31 | 42.77466 | -70.64033 | 9074 ft | 278 kts | 219° |
| 2026-04-16 22:31 | 42.75861 | -70.65447 | 8760 ft | 276 kts | 220° |
| 2026-04-16 22:31 | 42.74269 | -70.66936 | 8387 ft | 275 kts | 221° |
| 2026-04-16 22:31 | 42.72717 | -70.68400 | 8013 ft | 275 kts | 220° |
| 2026-04-16 22:32 | 42.71143 | -70.69849 | 7977 ft | 270 kts | 219° |
| 2026-04-16 22:32 | 42.69591 | -70.71263 | 7908 ft | 267 kts | 220° |
| 2026-04-16 22:32 | 42.68138 | -70.72813 | 7571 ft | 265 kts | 226° |
| 2026-04-16 22:32 | 42.66788 | -70.74538 | 7135 ft | 267 kts | 229° |
| 2026-04-16 22:33 | 42.65479 | -70.76306 | 6886 ft | 262 kts | 229° |
| 2026-04-16 22:33 | 42.64201 | -70.78038 | 6704 ft | 257 kts | 230° |
| 2026-04-16 22:33 | 42.62949 | -70.79770 | 6420 ft | 257 kts | 229° |
| 2026-04-16 22:33 | 42.61684 | -70.81500 | 6071 ft | 259 kts | 229° |
| 2026-04-16 22:34 | 42.60437 | -70.83230 | 5958 ft | 255 kts | 229° |
| 2026-04-16 22:34 | 42.59208 | -70.84923 | 6036 ft | 248 kts | 230° |
| 2026-04-16 22:34 | 42.58017 | -70.86621 | 5975 ft | 248 kts | 230° |
| 2026-04-16 22:34 | 42.56831 | -70.88311 | 5938 ft | 248 kts | 230° |
| 2026-04-16 22:35 | 42.55649 | -70.89988 | 5997 ft | 244 kts | 229° |
| 2026-04-16 22:35 | 42.54464 | -70.91641 | 5979 ft | 244 kts | 229° |
| 2026-04-16 22:35 | 42.53259 | -70.93265 | 5971 ft | 244 kts | 227° |
| 2026-04-16 22:35 | 42.52057 | -70.94887 | 5957 ft | 243 kts | 230° |
| 2026-04-16 22:36 | 42.50892 | -70.96541 | 5967 ft | 242 kts | 229° |
| 2026-04-16 22:36 | 42.49723 | -70.98181 | 5966 ft | 242 kts | 229° |
| 2026-04-16 22:36 | 42.48546 | -70.99824 | 5986 ft | 241 kts | 230° |
| 2026-04-16 22:36 | 42.47390 | -71.01480 | 5732 ft | 245 kts | 230° |
| 2026-04-16 22:37 | 42.46233 | -71.03205 | 5433 ft | 249 kts | 231° |
| 2026-04-16 22:37 | 42.45103 | -71.04936 | 5061 ft | 250 kts | 232° |
| 2026-04-16 22:37 | 42.43949 | -71.06713 | 4990 ft | 250 kts | 231° |
| 2026-04-16 22:37 | 42.42795 | -71.08445 | 4996 ft | 246 kts | 230° |
| 2026-04-16 22:38 | 42.41512 | -71.09971 | 4987 ft | 246 kts | 217° |
| 2026-04-16 22:38 | 42.39954 | -71.10881 | 4941 ft | 246 kts | 199° |
| 2026-04-16 22:38 | 42.38318 | -71.11435 | 4973 ft | 238 kts | 199° |
| 2026-04-16 22:38 | 42.36736 | -71.11975 | 5001 ft | 231 kts | 199° |
| 2026-04-16 22:39 | 42.35199 | -71.12475 | 4983 ft | 224 kts | 199° |
| 2026-04-16 22:39 | 42.33699 | -71.12970 | 5011 ft | 220 kts | 199° |
| 2026-04-16 22:39 | 42.32227 | -71.13503 | 4995 ft | 218 kts | 201° |
| 2026-04-16 22:39 | 42.30768 | -71.14034 | 4991 ft | 217 kts | 200° |
| 2026-04-16 22:40 | 42.29308 | -71.14538 | 5005 ft | 214 kts | 200° |
| 2026-04-16 22:40 | 42.27885 | -71.15052 | 4916 ft | 211 kts | 200° |
| 2026-04-16 22:40 | 42.26472 | -71.15531 | 4659 ft | 209 kts | 200° |
| 2026-04-16 22:40 | 42.25079 | -71.16002 | 4408 ft | 204 kts | 200° |
| 2026-04-16 22:41 | 42.23717 | -71.16482 | 4144 ft | 200 kts | 200° |
| 2026-04-16 22:41 | 42.22397 | -71.16966 | 4045 ft | 192 kts | 200° |
| 2026-04-16 22:41 | 42.21135 | -71.17423 | 4040 ft | 185 kts | 200° |
| 2026-04-16 22:41 | 42.19901 | -71.17836 | 4062 ft | 181 kts | 196° |
| 2026-04-16 22:42 | 42.18641 | -71.17713 | 4026 ft | 192 kts | 162° |
| 2026-04-16 22:42 | 42.17660 | -71.16417 | 3853 ft | 211 kts | 118° |
| 2026-04-16 22:42 | 42.17382 | -71.14435 | 3643 ft | 218 kts | 94° |
| 2026-04-16 22:42 | 42.17500 | -71.12398 | 3392 ft | 221 kts | 74° |
| 2026-04-16 22:43 | 42.18164 | -71.10532 | 3147 ft | 220 kts | 56° |
| 2026-04-16 22:43 | 42.18725 | -71.09407 | 3048 ft | 216 kts | 50° |
| 2026-04-16 22:43 | 42.20350 | -71.07977 | 2745 ft | 209 kts | 13° |
| 2026-04-16 22:43 | 42.21272 | -71.07626 | 2629 ft | 207 kts | 11° |
| 2026-04-16 22:44 | 42.23133 | -71.06955 | 2408 ft | 207 kts | 16° |
| 2026-04-16 22:44 | 42.24022 | -71.06507 | 2375 ft | 207 kts | 19° |
| 2026-04-16 22:44 | 42.25348 | -71.05740 | 2224 ft | 207 kts | 20° |
| 2026-04-16 22:44 | 42.26670 | -71.05006 | 2050 ft | 204 kts | 18° |
| 2026-04-16 22:45 | 42.28009 | -71.04450 | 1877 ft | 200 kts | 13° |
| 2026-04-16 22:45 | 42.29363 | -71.03964 | 1634 ft | 201 kts | 14° |
| 2026-04-16 22:45 | 42.30644 | -71.03344 | 1523 ft | 186 kts | 22° |
| 2026-04-16 22:45 | 42.31758 | -71.02714 | 1197 ft | 160 kts | 19° |
| 2026-04-16 22:46 | 42.32764 | -71.02287 | 821 ft | 146 kts | 19° |
| 2026-04-16 22:46 | 42.33685 | -71.01913 | 534 ft | 131 kts | 20° |
| 2026-04-16 22:46 | 42.34513 | -71.01540 | 218 ft | 120 kts | 25° |
| 2026-04-16 22:46 | 42.35246 | -71.01119 | 43 ft | 107 kts | 23° |
| 2026-04-16 22:47 | 42.35883 | -71.00806 | 18 ft | 85 kts | 24° |
| 2026-04-16 22:47 | 42.36367 | -71.00575 | 23 ft | 66 kts | 21° |
| 2026-04-16 22:47 | 42.36742 | -71.00441 | 21 ft | 52 kts | 355° |
| 2026-04-16 22:47 | 42.37007 | -71.00495 | 18 ft | 33 kts | 345° |
| 2026-04-16 22:48 | 42.37153 | -71.00639 | 16 ft | 13 kts | 312° |
| 2026-04-16 22:48 | 42.37166 | -71.00659 | 15 ft | 0 kts | 319° |
| 2026-04-16 22:49 | 42.37176 | -71.00675 | 15 ft | 7 kts | 313° |
| 2026-04-16 22:49 | 42.37228 | -71.00738 | 14 ft | 13 kts | 316° |
| 2026-04-16 22:49 | 42.37295 | -71.00836 | 16 ft | 16 kts | 292° |
| 2026-04-16 22:50 | 42.37232 | -71.00947 | 17 ft | 18 kts | 205° |
| 2026-04-16 22:50 | 42.37111 | -71.01026 | 17 ft | 21 kts | 206° |
| 2026-04-16 22:50 | 42.37042 | -71.01072 | 18 ft | 0 kts | 207° |
| 2026-04-16 22:51 | 42.36975 | -71.01113 | 20 ft | 18 kts | 210° |
| 2026-04-16 22:52 | 42.36884 | -71.01226 | 19 ft | 16 kts | 225° |
| 2026-04-16 22:52 | 42.36851 | -71.01346 | 21 ft | 15 kts | 303° |
| 2026-04-16 22:52 | 42.36922 | -71.01444 | 22 ft | 14 kts | 314° |
| 2026-04-16 22:52 | 42.36992 | -71.01544 | 23 ft | 15 kts | 314° |
| 2026-04-16 22:53 | 42.37060 | -71.01636 | 26 ft | 13 kts | 317° |
| 2026-04-16 22:53 | 42.37114 | -71.01734 | 26 ft | 14 kts | 301° |
| 2026-04-16 22:53 | 42.37170 | -71.01848 | 26 ft | 15 kts | 303° |
| 2026-04-16 22:53 | 42.37230 | -71.01961 | 28 ft | 15 kts | 306° |
| 2026-04-16 22:54 | 42.37297 | -71.02083 | 24 ft | 15 kts | 304° |
| 2026-04-16 22:54 | 42.37367 | -71.02154 | 25 ft | 12 kts | 2° |
| 2026-04-16 22:54 | 42.37424 | -71.02091 | 23 ft | 10 kts | 78° |
| 2026-04-16 22:54 | 42.37413 | -71.02051 | 25 ft | 0 kts | 138° |
| 2026-04-16 22:55 | 42.37410 | -71.02047 | 24 ft | 0 kts | 140° |